createdAt,value
2019-02-14T00:01:28.559Z,102014.14
2019-02-14T00:03:56.892Z,102009.41
2019-02-14T00:06:24.933Z,102006.52
2019-02-14T00:08:53.281Z,102005.77
2019-02-14T00:11:21.343Z,102008.12
2019-02-14T00:13:49.388Z,102001.34
2019-02-14T00:16:17.573Z,101998.81
2019-02-14T00:18:46.026Z,102000.64
2019-02-14T00:21:14.501Z,102002.53
2019-02-14T00:23:44.618Z,102006.20
2019-02-14T00:26:12.677Z,102014.12
2019-02-14T00:28:41.027Z,102018.62
2019-02-14T00:31:09.133Z,102018.76
2019-02-14T00:33:38.297Z,102015.41
2019-02-14T00:36:06.366Z,102015.11
2019-02-14T00:38:34.628Z,102018.17
2019-02-14T00:41:02.759Z,102016.55
2019-02-14T00:43:30.965Z,102017.45
2019-02-14T00:45:59.036Z,102018.00
2019-02-14T00:48:28.189Z,102007.26
2019-02-14T00:50:56.269Z,102011.19
2019-02-14T00:53:24.360Z,102007.84
2019-02-14T00:55:52.808Z,102004.41
2019-02-14T00:58:20.896Z,102001.83
2019-02-14T01:00:50.170Z,101996.34
2019-02-14T01:03:18.599Z,101999.77
2019-02-14T01:05:47.590Z,101998.94
2019-02-14T01:08:15.641Z,101999.45
2019-02-14T01:10:44.327Z,101996.48
2019-02-14T01:13:13.614Z,101992.75
2019-02-14T01:15:42.557Z,101993.97
2019-02-14T01:18:10.603Z,101998.84
2019-02-14T01:20:38.679Z,101993.29
2019-02-14T01:23:07.844Z,101991.12
2019-02-14T01:25:35.950Z,101992.58
2019-02-14T01:28:04.095Z,101983.59
2019-02-14T01:30:32.281Z,101987.98
2019-02-14T01:33:00.489Z,101984.27
2019-02-14T01:35:28.549Z,101989.06
2019-02-14T01:37:56.591Z,101989.65
2019-02-14T01:40:25.369Z,101981.96
2019-02-14T01:42:53.426Z,101982.50
2019-02-14T01:45:21.731Z,101978.61
2019-02-14T01:47:49.832Z,101975.95
2019-02-14T01:50:17.885Z,101978.08
2019-02-14T01:52:46.069Z,101975.95
2019-02-14T01:55:14.180Z,101970.39
2019-02-14T01:57:42.765Z,101970.47
2019-02-14T02:00:12.927Z,101967.50
2019-02-14T02:02:41.286Z,101973.64
2019-02-14T02:05:09.346Z,101972.42
2019-02-14T02:07:37.393Z,101967.33
2019-02-14T02:10:06.918Z,101963.48
2019-02-14T02:12:35.188Z,101958.77
2019-02-14T02:15:03.757Z,101954.88
2019-02-14T02:17:31.794Z,101950.16
2019-02-14T02:19:59.823Z,101953.13
2019-02-14T02:22:27.848Z,101949.79
2019-02-14T02:24:55.936Z,101947.28
2019-02-14T02:27:23.999Z,101951.23
2019-02-14T02:29:53.763Z,101954.74
2019-02-14T02:32:21.916Z,101955.78
2019-02-14T02:34:50.089Z,101955.33
2019-02-14T02:37:18.134Z,101955.25
2019-02-14T02:39:46.259Z,101950.91
2019-02-14T02:42:14.713Z,101956.09
2019-02-14T02:44:43.036Z,101949.69
2019-02-14T02:47:11.062Z,101947.64
2019-02-14T02:49:39.113Z,101949.85
2019-02-14T02:52:07.199Z,101950.31
2019-02-14T02:54:35.220Z,101946.55
2019-02-14T02:57:03.247Z,101948.38
2019-02-14T02:59:31.787Z,101948.00
2019-02-14T03:01:59.817Z,101941.98
2019-02-14T03:04:27.872Z,101943.79
2019-02-14T03:06:55.980Z,101938.69
2019-02-14T03:09:25.025Z,101944.02
2019-02-14T03:11:53.417Z,101936.77
2019-02-14T03:14:21.828Z,101936.08
2019-02-14T03:16:49.903Z,101935.33
2019-02-14T03:19:17.938Z,101942.22
2019-02-14T03:21:45.983Z,101943.97
2019-02-14T03:24:13.996Z,101937.50
2019-02-14T03:26:42.041Z,101929.36
2019-02-14T03:29:10.195Z,101929.89
2019-02-14T03:31:38.229Z,101932.02
2019-02-14T03:34:06.273Z,101933.39
2019-02-14T03:36:35.224Z,101936.48
2019-02-14T03:39:05.613Z,101951.58
2019-02-14T03:41:34.239Z,101946.71
2019-02-14T03:44:02.278Z,101949.67
2019-02-14T03:46:30.286Z,101951.88
2019-02-14T03:48:58.308Z,101944.66
2019-02-14T03:51:26.653Z,101945.54
2019-02-14T03:53:54.722Z,101952.92
2019-02-14T03:56:23.172Z,101958.05
2019-02-14T03:58:51.207Z,101960.69
2019-02-14T04:01:20.272Z,101967.61
2019-02-14T04:03:48.323Z,101965.02
2019-02-14T04:06:16.352Z,101961.14
2019-02-14T04:08:45.481Z,101964.27
2019-02-14T04:11:13.532Z,101966.47
2019-02-14T04:13:41.908Z,101969.55
2019-02-14T04:16:09.958Z,101966.66
2019-02-14T04:18:37.986Z,101962.02
2019-02-14T04:21:06.440Z,101966.28
2019-02-14T04:23:34.499Z,101963.70
2019-02-14T04:26:03.629Z,101963.70
2019-02-14T04:28:32.298Z,101972.67
2019-02-14T04:31:02.560Z,101970.16
2019-02-14T04:33:30.992Z,101964.61
2019-02-14T04:35:59.311Z,101972.83
2019-02-14T04:38:27.375Z,101972.48
2019-02-14T04:40:55.469Z,101973.78
2019-02-14T04:43:24.529Z,101972.91
2019-02-14T04:45:52.604Z,101968.49
2019-02-14T04:48:20.689Z,101974.58
2019-02-14T04:50:49.911Z,101966.74
2019-02-14T04:53:17.970Z,101973.52
2019-02-14T04:55:46.023Z,101975.64
2019-02-14T04:58:14.109Z,101974.42
2019-02-14T05:00:42.927Z,101971.00
2019-02-14T05:03:11.171Z,101971.98
2019-02-14T05:05:39.674Z,101975.08
2019-02-14T05:08:07.758Z,101975.98
2019-02-14T05:10:39.062Z,101970.52
2019-02-14T05:13:07.171Z,101970.97
2019-02-14T05:15:35.262Z,101969.75
2019-02-14T05:18:03.742Z,101970.17
2019-02-14T05:20:31.935Z,101976.26
2019-02-14T05:23:00.080Z,101983.98
2019-02-14T05:25:28.141Z,101980.52
2019-02-14T05:27:56.364Z,101977.51
2019-02-14T05:30:24.427Z,101964.16
2019-02-14T05:32:52.870Z,101975.76
2019-02-14T05:35:21.483Z,101973.55
2019-02-14T05:37:49.563Z,101974.92
2019-02-14T05:40:18.098Z,101981.81
2019-02-14T05:42:46.518Z,101984.40
2019-02-14T05:45:14.670Z,101988.88
2019-02-14T05:47:42.867Z,101995.80
2019-02-14T05:50:11.044Z,101999.76
2019-02-14T05:52:39.206Z,102001.89
2019-02-14T05:55:08.747Z,102012.23
2019-02-14T05:57:36.961Z,102009.65
2019-02-14T06:00:06.230Z,102003.64
2019-02-14T06:02:35.082Z,102006.68
2019-02-14T06:05:03.401Z,102005.89
2019-02-14T06:07:31.499Z,102011.44
2019-02-14T06:09:59.622Z,102022.23
2019-02-14T06:12:27.776Z,102021.78
2019-02-14T06:14:56.112Z,102032.09
2019-02-14T06:17:24.300Z,102036.35
2019-02-14T06:19:52.361Z,102034.60
2019-02-14T06:22:20.427Z,102033.23
2019-02-14T06:24:48.535Z,102033.31
2019-02-14T06:27:16.601Z,102025.17
2019-02-14T06:29:44.720Z,102027.87
2019-02-14T06:32:13.167Z,102033.11
2019-02-14T06:34:41.661Z,102034.86
2019-02-14T06:37:10.116Z,102044.45
2019-02-14T06:39:38.247Z,102050.95
2019-02-14T06:42:06.301Z,102045.47
2019-02-14T06:44:35.342Z,102051.09
2019-02-14T06:47:04.769Z,102047.28
2019-02-14T06:49:32.976Z,102058.08
2019-02-14T06:52:02.162Z,102046.17
2019-02-14T06:54:30.274Z,102051.08
2019-02-14T06:56:58.376Z,102054.64
2019-02-14T06:59:26.464Z,102049.27
2019-02-14T07:01:54.795Z,102056.64
2019-02-14T07:04:22.930Z,102060.59
2019-02-14T07:06:51.137Z,102066.73
2019-02-14T07:09:20.460Z,102062.06
2019-02-14T07:11:48.585Z,102065.94
2019-02-14T07:14:17.755Z,102063.04
2019-02-14T07:16:46.020Z,102067.75
2019-02-14T07:19:14.135Z,102070.27
2019-02-14T07:21:42.198Z,102071.11
2019-02-14T07:24:10.260Z,102071.45
2019-02-14T07:26:38.961Z,102075.92
2019-02-14T07:29:07.383Z,102068.75
2019-02-14T07:31:36.682Z,102078.70
2019-02-14T07:34:05.903Z,102079.86
2019-02-14T07:36:34.570Z,102077.45
2019-02-14T07:39:06.007Z,102085.80
2019-02-14T07:41:34.096Z,102082.33
2019-02-14T07:44:02.193Z,102083.34
2019-02-14T07:46:31.966Z,102084.89
2019-02-14T07:49:00.396Z,102083.80
2019-02-14T07:51:28.471Z,102080.95
2019-02-14T07:53:56.648Z,102085.67
2019-02-14T07:56:24.739Z,102096.05
2019-02-14T07:58:52.820Z,102089.62
2019-02-14T08:01:21.006Z,102097.68
2019-02-14T08:03:49.096Z,102097.52
2019-02-14T08:06:18.168Z,102102.88
2019-02-14T08:08:46.449Z,102106.08
2019-02-14T08:11:14.630Z,102100.71
2019-02-14T08:13:42.767Z,102100.77
2019-02-14T08:16:11.246Z,102094.87
2019-02-14T08:18:39.331Z,102089.05
2019-02-14T08:21:07.490Z,102089.97
2019-02-14T08:23:35.563Z,102089.67
2019-02-14T08:26:10.658Z,102082.42
2019-02-14T08:28:33.910Z,102091.39
2019-02-14T08:31:02.352Z,102085.53
2019-02-14T08:33:30.736Z,102079.66
2019-02-14T08:35:58.809Z,102077.52
2019-02-14T08:38:26.867Z,102077.06
2019-02-14T08:40:55.444Z,102074.42
2019-02-14T08:43:24.409Z,102073.67
2019-02-14T08:45:52.494Z,102075.41
2019-02-14T08:48:20.811Z,102075.17
2019-02-14T08:50:48.919Z,102071.33
2019-02-14T08:53:17.289Z,102076.42
2019-02-14T08:55:45.704Z,102076.08
2019-02-14T08:58:13.748Z,102073.50
2019-02-14T09:00:41.918Z,102072.54
2019-02-14T09:03:09.967Z,102068.09
2019-02-14T09:05:38.053Z,102067.99
2019-02-14T09:08:07.229Z,102068.31
2019-02-14T09:10:37.038Z,102069.34
2019-02-14T09:13:05.099Z,102064.92
2019-02-14T09:15:33.212Z,102073.88
2019-02-14T09:18:01.332Z,102068.41
2019-02-14T09:20:29.435Z,102068.53
2019-02-14T09:22:57.467Z,102066.66
2019-02-14T09:25:25.533Z,102061.11
2019-02-14T09:27:53.574Z,102062.74
2019-02-14T09:30:21.655Z,102056.86
2019-02-14T09:32:50.161Z,102053.55
2019-02-14T09:35:18.237Z,102058.80
2019-02-14T09:37:46.648Z,102054.56
2019-02-14T09:40:14.807Z,102054.54
2019-02-14T09:42:42.863Z,102050.89
2019-02-14T09:45:11.636Z,102048.31
2019-02-14T09:47:39.686Z,102055.40
2019-02-14T09:50:09.328Z,102049.52
2019-02-14T09:52:38.660Z,102050.89
2019-02-14T09:55:07.332Z,102049.80
2019-02-14T09:57:35.384Z,102044.22
2019-02-14T10:00:04.273Z,102048.05
2019-02-14T10:02:32.406Z,102046.98
2019-02-14T10:05:00.662Z,102046.11
2019-02-14T10:07:28.800Z,102043.37
2019-02-14T10:09:56.858Z,102044.08
2019-02-14T10:12:24.999Z,102044.69
2019-02-14T10:14:53.074Z,102047.66
2019-02-14T10:17:22.463Z,102045.74
2019-02-14T10:19:50.745Z,102044.67
2019-02-14T10:22:18.830Z,102035.74
2019-02-14T10:24:47.180Z,102039.13
2019-02-14T10:27:15.268Z,102040.64
2019-02-14T10:29:43.542Z,102050.62
2019-02-14T10:32:11.780Z,102048.03
2019-02-14T10:34:39.977Z,102046.09
2019-02-14T10:39:36.488Z,102047.38
2019-02-14T10:42:04.576Z,102042.48
2019-02-14T10:44:32.705Z,102043.90
2019-02-14T10:47:01.235Z,102044.91
2019-02-14T10:49:29.405Z,102041.08
2019-02-14T10:51:57.504Z,102038.45
2019-02-14T10:54:25.569Z,102040.48
2019-02-14T10:56:55.403Z,102038.25
2019-02-14T10:59:23.633Z,102035.48
2019-02-14T11:01:51.815Z,102033.55
2019-02-14T11:04:20.227Z,102026.99
2019-02-14T11:06:48.412Z,102027.44
2019-02-14T11:09:17.313Z,102028.39
2019-02-14T11:11:46.290Z,102023.49
2019-02-14T11:14:14.520Z,102016.31
2019-02-14T11:16:42.763Z,102011.30
2019-02-14T11:19:10.819Z,102001.95
2019-02-14T11:21:39.988Z,101998.20
2019-02-14T11:24:08.390Z,101997.38
2019-02-14T11:26:38.378Z,101989.81
2019-02-14T11:29:06.789Z,101987.97
2019-02-14T11:31:34.883Z,101985.27
2019-02-14T11:34:03.014Z,101976.52
2019-02-14T11:36:32.382Z,101970.44
2019-02-14T11:39:00.434Z,101961.33
2019-02-14T11:41:28.740Z,101966.47
2019-02-14T11:43:56.826Z,101961.86
2019-02-14T11:46:26.015Z,101955.80
2019-02-14T11:48:54.465Z,101953.50
2019-02-14T11:51:22.786Z,101946.37
2019-02-14T11:53:51.403Z,101949.14
2019-02-14T11:56:19.556Z,101949.93
2019-02-14T11:58:47.606Z,101950.70
2019-02-14T12:01:15.687Z,101957.27
2019-02-14T12:03:44.068Z,101955.09
2019-02-14T12:06:17.512Z,101950.14
2019-02-14T12:08:53.064Z,101948.84
2019-02-14T12:11:12.271Z,101941.73
2019-02-14T12:13:40.612Z,101939.72
2019-02-14T12:16:08.697Z,101940.15
2019-02-14T12:18:37.063Z,101939.86
2019-02-14T12:21:05.665Z,101933.90
2019-02-14T12:23:33.705Z,101924.41
2019-02-14T12:26:02.130Z,101923.30
2019-02-14T12:28:30.247Z,101915.89
2019-02-14T12:30:58.621Z,101920.69
2019-02-14T12:33:26.658Z,101914.93
2019-02-14T12:35:55.819Z,101908.05
2019-02-14T12:38:23.980Z,101903.08
2019-02-14T12:40:52.290Z,101903.97
2019-02-14T12:43:20.441Z,101902.30
2019-02-14T12:45:48.517Z,101900.14
2019-02-14T12:48:17.121Z,101899.33
2019-02-14T12:50:45.266Z,101897.65
2019-02-14T12:53:13.280Z,101897.65
2019-02-14T12:55:41.436Z,101893.41
2019-02-14T12:58:09.746Z,101892.36
2019-02-14T13:00:38.956Z,101889.16
2019-02-14T13:03:07.065Z,101878.08
2019-02-14T13:05:35.337Z,101875.88
2019-02-14T13:08:03.462Z,101871.13
2019-02-14T13:10:31.553Z,101873.58
2019-02-14T13:12:59.652Z,101874.59
2019-02-14T13:15:28.519Z,101868.81
2019-02-14T13:17:56.669Z,101859.13
2019-02-14T13:20:25.024Z,101859.03
2019-02-14T13:22:53.117Z,101858.80
2019-02-14T13:25:21.238Z,101856.01
2019-02-14T13:27:49.631Z,101850.42
2019-02-14T13:30:20.345Z,101847.03
2019-02-14T13:32:48.430Z,101842.39
2019-02-14T13:35:16.553Z,101838.83
2019-02-14T13:37:44.677Z,101834.02
2019-02-14T13:40:12.714Z,101829.41
2019-02-14T13:42:40.856Z,101819.75
2019-02-14T13:45:11.588Z,101823.13
2019-02-14T13:47:39.732Z,101824.46
2019-02-14T13:50:09.122Z,101821.56
2019-02-14T13:52:37.195Z,101819.65
2019-02-14T13:55:06.484Z,101824.33
2019-02-14T13:57:34.618Z,101830.11
2019-02-14T14:00:05.150Z,101822.36
2019-02-14T14:02:33.836Z,101817.05
2019-02-14T14:05:02.191Z,101813.81
2019-02-14T14:07:39.910Z,101816.23
2019-02-14T14:10:00.523Z,101815.16
2019-02-14T14:12:28.595Z,101802.23
2019-02-14T14:14:56.980Z,101799.86
2019-02-14T14:17:25.327Z,101805.81
2019-02-14T14:19:53.434Z,101801.62
2019-02-14T14:22:21.879Z,101806.58
2019-02-14T14:24:49.941Z,101800.23
2019-02-14T14:27:18.057Z,101795.55
2019-02-14T14:29:47.765Z,101791.75
2019-02-14T14:32:15.855Z,101794.82
2019-02-14T14:34:45.232Z,101790.47
2019-02-14T14:37:13.373Z,101780.86
2019-02-14T14:39:47.893Z,101774.30
2019-02-14T14:42:32.920Z,101774.77
2019-02-14T14:45:01.690Z,101777.97
2019-02-14T14:47:29.812Z,101775.70
2019-02-14T14:49:57.930Z,101773.75
2019-02-14T14:52:25.996Z,101772.47
2019-02-14T14:54:54.709Z,101769.67
2019-02-14T14:57:22.802Z,101768.34
2019-02-14T14:59:50.859Z,101761.95
2019-02-14T15:02:18.952Z,101753.89
2019-02-14T15:04:47.261Z,101753.57
2019-02-14T15:07:15.644Z,101754.38
2019-02-14T15:09:44.231Z,101741.05
2019-02-14T15:12:12.295Z,101742.03
2019-02-14T15:14:41.239Z,101739.66
2019-02-14T15:17:10.609Z,101745.20
2019-02-14T15:19:38.626Z,101738.94
2019-02-14T15:22:06.795Z,101743.49
2019-02-14T15:24:34.829Z,101745.42
2019-02-14T15:27:02.956Z,101733.48
2019-02-14T15:29:31.279Z,101736.45
2019-02-14T15:31:59.400Z,101728.67
2019-02-14T15:34:27.555Z,101728.80
2019-02-14T15:36:55.643Z,101730.42
2019-02-14T15:39:23.664Z,101735.51
2019-02-14T15:41:52.043Z,101732.52
2019-02-14T15:44:20.210Z,101721.67
2019-02-14T15:46:48.393Z,101722.69
2019-02-14T15:49:17.517Z,101712.44
2019-02-14T15:51:45.645Z,101716.91
2019-02-14T15:54:13.755Z,101717.87
2019-02-14T15:56:41.893Z,101717.55
2019-02-14T15:59:10.987Z,101712.63
2019-02-14T16:01:39.708Z,101715.19
2019-02-14T16:04:08.353Z,101715.31
2019-02-14T16:06:36.466Z,101720.41
2019-02-14T16:09:05.573Z,101725.88
2019-02-14T16:11:36.544Z,101727.98
2019-02-14T16:14:05.732Z,101721.33
2019-02-14T16:16:33.853Z,101720.77
2019-02-14T16:19:02.057Z,101720.74
2019-02-14T16:21:31.627Z,101730.05
2019-02-14T16:24:00.172Z,101734.52
2019-02-14T16:26:28.531Z,101732.50
2019-02-14T16:28:56.638Z,101731.89
2019-02-14T16:31:24.864Z,101731.63
2019-02-14T16:33:53.844Z,101730.83
2019-02-14T16:36:22.836Z,101732.60
2019-02-14T16:38:51.076Z,101732.37
2019-02-14T16:41:19.332Z,101730.19
2019-02-14T16:43:47.650Z,101733.30
2019-02-14T16:46:15.855Z,101740.38
2019-02-14T16:48:44.117Z,101739.75
2019-02-14T16:51:12.955Z,101745.92
2019-02-14T16:53:41.087Z,101746.42
2019-02-14T16:56:09.529Z,101744.92
2019-02-14T16:58:37.689Z,101758.55
2019-02-14T17:01:05.855Z,101758.29
2019-02-14T17:03:34.112Z,101757.33
2019-02-14T17:06:02.317Z,101764.98
2019-02-14T17:08:31.077Z,101767.30
2019-02-14T17:10:59.329Z,101762.63
2019-02-14T17:13:34.639Z,101760.15
2019-02-14T17:16:02.986Z,101765.39
2019-02-14T17:18:31.074Z,101762.53
2019-02-14T17:20:59.230Z,101763.48
2019-02-14T17:23:27.352Z,101770.05
2019-02-14T17:25:56.859Z,101773.55
2019-02-14T17:28:25.716Z,101776.41
2019-02-14T17:30:53.929Z,101773.15
2019-02-14T17:33:22.053Z,101777.17
2019-02-14T17:35:50.194Z,101777.34
2019-02-14T17:38:18.307Z,101778.30
2019-02-14T17:40:46.676Z,101782.56
2019-02-14T17:43:15.244Z,101778.80
2019-02-14T17:45:43.539Z,101777.66
2019-02-14T17:48:11.656Z,101785.08
2019-02-14T17:50:40.729Z,101781.61
2019-02-14T17:53:08.843Z,101786.05
2019-02-14T17:55:37.302Z,101787.69
2019-02-14T17:58:05.410Z,101792.90
2019-02-14T18:00:33.807Z,101790.58
2019-02-14T18:03:02.250Z,101790.88
2019-02-14T18:05:30.406Z,101792.48
2019-02-14T18:07:58.848Z,101784.39
2019-02-14T18:10:27.065Z,101779.45
2019-02-14T18:12:55.428Z,101784.16
2019-02-14T18:15:23.596Z,101782.62
2019-02-14T18:17:51.832Z,101782.25
2019-02-14T18:20:19.873Z,101778.56
2019-02-14T18:22:47.979Z,101782.87
2019-02-14T18:25:16.308Z,101779.66
2019-02-14T18:27:44.627Z,101779.55
2019-02-14T18:30:12.742Z,101784.55
2019-02-14T18:32:42.403Z,101796.84
2019-02-14T18:35:10.509Z,101794.09
2019-02-14T18:37:38.863Z,101791.33
2019-02-14T18:40:08.102Z,101790.55
2019-02-14T18:42:36.636Z,101790.51
2019-02-14T18:45:07.909Z,101795.80
2019-02-14T18:47:39.752Z,101788.95
2019-02-14T18:50:07.050Z,101789.47
2019-02-14T18:52:35.138Z,101793.30
2019-02-14T18:55:03.251Z,101793.23
2019-02-14T18:57:32.331Z,101790.98
2019-02-14T19:00:01.493Z,101793.66
2019-02-14T19:02:29.661Z,101790.09
2019-02-14T19:04:57.816Z,101788.34
2019-02-14T19:07:26.075Z,101789.66
2019-02-14T19:09:54.239Z,101791.70
2019-02-14T19:12:22.961Z,101792.18
2019-02-14T19:14:52.175Z,101794.66
2019-02-14T19:17:20.366Z,101791.94
2019-02-14T19:19:48.851Z,101800.13
2019-02-14T19:22:16.897Z,101800.25
2019-02-14T19:24:45.503Z,101788.94
2019-02-14T19:27:13.604Z,101783.98
2019-02-14T19:29:41.922Z,101787.43
2019-02-14T19:32:10.267Z,101779.19
2019-02-14T19:34:38.426Z,101779.89
2019-02-14T19:37:06.490Z,101771.28
2019-02-14T19:39:34.763Z,101770.90
2019-02-14T19:42:03.055Z,101773.04
2019-02-14T19:44:31.359Z,101774.80
2019-02-14T19:47:14.395Z,101775.71
2019-02-14T19:49:42.641Z,101780.07
2019-02-14T19:52:12.039Z,101774.69
2019-02-14T19:54:42.700Z,101776.05
2019-02-14T19:57:10.775Z,101773.52
2019-02-14T19:59:39.177Z,101781.91
2019-02-14T20:02:07.346Z,101775.81
2019-02-14T20:04:36.490Z,101767.34
2019-02-14T20:07:04.643Z,101776.18
2019-02-14T20:09:32.924Z,101771.59
2019-02-14T20:12:01.612Z,101780.11
2019-02-14T20:14:30.160Z,101782.31
2019-02-14T20:16:58.263Z,101782.27
2019-02-14T20:19:26.816Z,101785.77
2019-02-14T20:21:54.865Z,101792.63
2019-02-14T20:24:24.348Z,101795.53
2019-02-14T20:26:52.657Z,101796.42
2019-02-14T20:29:22.097Z,101792.67
2019-02-14T20:31:50.267Z,101796.31
2019-02-14T20:34:18.731Z,101794.23
2019-02-14T20:36:47.070Z,101792.50
2019-02-14T20:39:15.451Z,101796.81
2019-02-14T20:41:46.075Z,101795.08
2019-02-14T20:44:13.935Z,101798.45
2019-02-14T20:46:43.679Z,101794.03
2019-02-14T20:49:12.400Z,101795.73
2019-02-14T20:51:40.633Z,101799.56
2019-02-14T20:54:08.887Z,101798.08
2019-02-14T20:56:36.976Z,101794.50
2019-02-14T20:59:05.247Z,101797.28
2019-02-14T21:01:33.348Z,101800.64
2019-02-14T21:04:02.019Z,101793.69
2019-02-14T21:06:30.067Z,101799.21
2019-02-14T21:08:58.344Z,101793.35
2019-02-14T21:11:26.404Z,101799.23
2019-02-14T21:13:54.525Z,101790.98
2019-02-14T21:16:22.737Z,101782.83
2019-02-14T21:18:50.869Z,101778.95
2019-02-14T21:21:18.931Z,101785.83
2019-02-14T21:23:46.986Z,101791.59
2019-02-14T21:26:15.237Z,101792.90
2019-02-14T21:28:44.483Z,101782.70
2019-02-14T21:31:12.574Z,101786.77
2019-02-14T21:33:40.757Z,101781.41
2019-02-14T21:36:09.051Z,101781.22
2019-02-14T21:38:37.102Z,101773.62
2019-02-14T21:41:05.205Z,101770.62
2019-02-14T21:43:33.584Z,101773.22
2019-02-14T21:46:01.859Z,101778.05
2019-02-14T21:48:29.971Z,101779.09
2019-02-14T21:50:58.051Z,101770.36
2019-02-14T21:53:26.262Z,101772.33
2019-02-14T21:55:54.882Z,101765.16
2019-02-14T21:58:22.948Z,101771.00
2019-02-14T22:00:51.334Z,101772.03
2019-02-14T22:03:19.736Z,101773.89
2019-02-14T22:05:48.740Z,101769.33
2019-02-14T22:08:19.087Z,101772.13
2019-02-14T22:10:47.325Z,101776.66
2019-02-14T22:13:16.035Z,101773.06
2019-02-14T22:15:44.825Z,101782.32
2019-02-14T22:18:12.930Z,101785.11
2019-02-14T22:20:42.566Z,101789.55
2019-02-14T22:23:11.392Z,101787.51
2019-02-14T22:25:39.956Z,101789.37
2019-02-14T22:28:08.165Z,101790.30
2019-02-14T22:30:36.289Z,101784.34
2019-02-14T22:33:04.488Z,101782.77
2019-02-14T22:35:32.684Z,101788.06
2019-02-14T22:38:02.214Z,101783.78
2019-02-14T22:40:30.303Z,101778.48
2019-02-14T22:42:58.408Z,101786.16
2019-02-14T22:45:26.503Z,101791.52
2019-02-14T22:47:54.759Z,101791.61
2019-02-14T22:50:22.900Z,101788.27
2019-02-14T22:52:51.336Z,101785.83
2019-02-14T22:55:19.729Z,101775.64
2019-02-14T22:57:47.822Z,101784.05
2019-02-14T23:00:30.181Z,101787.27
2019-02-14T23:03:00.257Z,101780.09
2019-02-14T23:05:28.400Z,101784.64
2019-02-14T23:07:56.612Z,101780.17
2019-02-14T23:10:24.931Z,101785.24
2019-02-14T23:12:56.115Z,101788.12
2019-02-14T23:15:24.147Z,101791.33
2019-02-14T23:17:52.327Z,101789.84
2019-02-14T23:20:20.483Z,101793.98
2019-02-14T23:22:48.644Z,101789.35
2019-02-14T23:25:17.275Z,101781.25
2019-02-14T23:27:45.374Z,101779.68
2019-02-14T23:30:13.438Z,101788.77
2019-02-14T23:32:41.993Z,101791.91
2019-02-14T23:35:10.960Z,101787.24
2019-02-14T23:37:39.073Z,101783.45
2019-02-14T23:40:07.239Z,101783.08
2019-02-14T23:42:35.596Z,101787.06
2019-02-14T23:45:04.801Z,101788.41
2019-02-14T23:47:32.904Z,101798.05
2019-02-14T23:50:00.999Z,101787.02
2019-02-14T23:52:29.336Z,101781.14
2019-02-14T23:54:57.446Z,101785.59
2019-02-14T23:57:25.517Z,101781.84
2019-02-14T23:59:53.588Z,101780.36
